createdAt,value
2023-04-19T00:00:45.699Z,9.02
2023-04-19T00:01:45.643Z,9.11
2023-04-19T00:02:45.752Z,9.10
2023-04-19T00:03:45.827Z,9.13
2023-04-19T00:04:45.826Z,9.00
2023-04-19T00:05:45.640Z,9.04
2023-04-19T00:06:45.624Z,8.99
2023-04-19T00:07:45.579Z,8.94
2023-04-19T00:08:45.584Z,8.99
2023-04-19T00:09:45.534Z,8.97
2023-04-19T00:10:45.605Z,8.92
2023-04-19T00:11:45.621Z,8.99
2023-04-19T00:12:45.487Z,8.87
2023-04-19T00:13:45.471Z,8.89
2023-04-19T00:14:45.462Z,8.92
2023-04-19T00:15:45.511Z,8.87
2023-04-19T00:16:45.640Z,8.91
2023-04-19T00:17:45.474Z,8.89
2023-04-19T00:18:45.450Z,8.87
2023-04-19T00:19:45.424Z,8.92
2023-04-19T00:20:45.488Z,8.87
2023-04-19T00:21:45.403Z,8.85
2023-04-19T00:22:45.391Z,8.84
2023-04-19T00:23:45.384Z,8.79
2023-04-19T00:24:45.349Z,8.79
2023-04-19T00:25:45.350Z,8.79
2023-04-19T00:26:45.454Z,8.79
2023-04-19T00:27:45.341Z,8.76
2023-04-19T00:28:45.327Z,8.76
2023-04-19T00:29:45.365Z,8.66
2023-04-19T00:30:45.336Z,8.71
2023-04-19T00:31:45.542Z,8.58
2023-04-19T00:32:45.341Z,8.63
2023-04-19T00:33:45.267Z,8.66
2023-04-19T00:34:45.350Z,8.60
2023-04-19T00:35:45.263Z,8.69
2023-04-19T00:36:45.313Z,8.67
2023-04-19T00:37:45.227Z,8.67
2023-04-19T00:38:45.223Z,8.56
2023-04-19T00:39:45.259Z,8.61
2023-04-19T00:40:45.211Z,8.63
2023-04-19T00:41:45.195Z,8.63
2023-04-19T00:42:45.194Z,8.63
2023-04-19T00:43:45.174Z,8.69
2023-04-19T00:44:46.818Z,8.60
2023-04-19T00:45:45.164Z,8.67
2023-04-19T00:46:45.207Z,8.60
2023-04-19T00:47:45.174Z,8.60
2023-04-19T00:48:45.130Z,8.61
2023-04-19T00:49:45.194Z,8.56
2023-04-19T00:50:45.088Z,8.55
2023-04-19T00:51:45.084Z,8.53
2023-04-19T00:52:45.563Z,8.56
2023-04-19T00:53:45.059Z,8.52
2023-04-19T00:54:45.176Z,8.55
2023-04-19T00:55:45.051Z,8.56
2023-04-19T00:56:45.205Z,8.60
2023-04-19T00:57:45.113Z,8.51
2023-04-19T00:58:45.033Z,8.55
2023-04-19T00:59:44.996Z,8.55
2023-04-19T01:00:45.021Z,8.53
2023-04-19T01:01:45.025Z,8.61
2023-04-19T01:02:45.118Z,8.58
2023-04-19T01:03:45.131Z,8.66
2023-04-19T01:04:44.943Z,8.55
2023-04-19T01:05:44.934Z,8.60
2023-04-19T01:06:44.941Z,8.55
2023-04-19T01:07:45.041Z,8.61
2023-04-19T01:08:45.006Z,8.55
2023-04-19T01:09:44.908Z,8.60
2023-04-19T01:10:44.912Z,8.55
2023-04-19T01:11:44.940Z,8.52
2023-04-19T01:12:45.372Z,8.55
2023-04-19T01:13:44.917Z,8.45
2023-04-19T01:14:44.920Z,8.48
2023-04-19T01:15:44.843Z,8.44
2023-04-19T01:16:44.820Z,8.45
2023-04-19T01:17:44.859Z,8.30
2023-04-19T01:18:44.875Z,8.42
2023-04-19T01:19:44.818Z,8.28
2023-04-19T01:20:44.798Z,8.33
2023-04-19T01:21:45.310Z,8.30
2023-04-19T01:22:44.804Z,8.41
2023-04-19T01:23:44.870Z,8.27
2023-04-19T01:24:44.788Z,8.33
2023-04-19T01:25:44.770Z,8.44
2023-04-19T01:26:44.840Z,8.41
2023-04-19T01:27:44.779Z,8.42
2023-04-19T01:28:44.777Z,8.45
2023-04-19T01:29:44.681Z,8.45
2023-04-19T01:30:44.685Z,8.42
2023-04-19T01:31:44.808Z,8.41
2023-04-19T01:32:44.853Z,8.45
2023-04-19T01:33:44.636Z,8.42
2023-04-19T01:34:44.637Z,8.37
2023-04-19T01:35:44.655Z,8.42
2023-04-19T01:36:44.763Z,8.42
2023-04-19T01:37:44.599Z,8.38
2023-04-19T01:38:44.651Z,8.27
2023-04-19T01:39:44.662Z,8.34
2023-04-19T01:40:44.587Z,8.30
2023-04-19T01:41:44.566Z,8.28
2023-04-19T01:42:44.561Z,8.42
2023-04-19T01:43:44.540Z,8.31
2023-04-19T01:44:44.597Z,8.31
2023-04-19T01:45:44.538Z,8.30
2023-04-19T01:46:44.603Z,8.30
2023-04-19T01:47:44.525Z,8.30
2023-04-19T01:48:44.547Z,8.26
2023-04-19T01:49:44.524Z,8.18
2023-04-19T01:50:44.459Z,8.26
2023-04-19T01:51:44.469Z,8.16
2023-04-19T01:52:44.438Z,8.13
2023-04-19T01:53:44.445Z,8.10
2023-04-19T01:54:44.815Z,7.98
2023-04-19T01:55:44.412Z,8.06
2023-04-19T01:56:44.411Z,8.05
2023-04-19T01:57:44.410Z,8.05
2023-04-19T01:58:44.384Z,7.95
2023-04-19T01:59:44.434Z,7.95
2023-04-19T02:00:44.401Z,7.91
2023-04-19T02:01:44.390Z,7.91
2023-04-19T02:02:44.456Z,7.94
2023-04-19T02:03:44.546Z,7.90
2023-04-19T02:04:44.396Z,7.90
2023-04-19T02:05:44.310Z,7.90
2023-04-19T02:06:44.296Z,7.83
2023-04-19T02:07:44.286Z,7.80
2023-04-19T02:08:44.266Z,7.83
2023-04-19T02:09:44.368Z,7.83
2023-04-19T02:10:44.286Z,7.77
2023-04-19T02:11:44.258Z,7.83
2023-04-19T02:12:44.234Z,7.83
2023-04-19T02:13:44.233Z,7.77
2023-04-19T02:14:44.258Z,7.75
2023-04-19T02:15:44.233Z,7.82
2023-04-19T02:16:44.237Z,7.83
2023-04-19T02:17:44.231Z,7.80
2023-04-19T02:18:44.249Z,7.69
2023-04-19T02:19:44.265Z,7.79
2023-04-19T02:20:44.146Z,7.72
2023-04-19T02:21:44.184Z,7.75
2023-04-19T02:22:44.165Z,7.76
2023-04-19T02:23:44.141Z,7.82
2023-04-19T02:24:44.136Z,7.75
2023-04-19T02:25:44.169Z,7.80
2023-04-19T02:26:44.151Z,7.80
2023-04-19T02:27:44.130Z,7.85
2023-04-19T02:28:44.094Z,7.85
2023-04-19T02:29:44.132Z,7.83
2023-04-19T02:30:44.124Z,7.77
2023-04-19T02:31:44.074Z,7.82
2023-04-19T02:32:44.130Z,7.76
2023-04-19T02:33:44.020Z,7.69
2023-04-19T02:34:44.026Z,7.70
2023-04-19T02:35:44.056Z,7.67
2023-04-19T02:36:44.026Z,7.69
2023-04-19T02:37:44.043Z,7.75
2023-04-19T02:38:43.955Z,7.72
2023-04-19T02:39:43.965Z,7.76
2023-04-19T02:40:43.993Z,7.69
2023-04-19T02:41:43.932Z,7.69
2023-04-19T02:42:43.935Z,7.70
2023-04-19T02:43:43.910Z,7.67
2023-04-19T02:44:43.915Z,7.60
2023-04-19T02:45:43.955Z,7.58
2023-04-19T02:46:43.929Z,7.63
2023-04-19T02:47:43.892Z,7.57
2023-04-19T02:48:43.869Z,7.58
2023-04-19T02:49:43.859Z,7.58
2023-04-19T02:50:43.925Z,7.57
2023-04-19T02:51:43.883Z,7.57
2023-04-19T02:52:43.835Z,7.58
2023-04-19T02:53:43.811Z,7.50
2023-04-19T02:54:43.805Z,7.43
2023-04-19T02:55:43.814Z,7.51
2023-04-19T02:56:43.831Z,7.50
2023-04-19T02:57:43.768Z,7.48
2023-04-19T02:58:43.751Z,7.50
2023-04-19T02:59:43.741Z,7.39
2023-04-19T03:00:43.767Z,7.45
2023-04-19T03:01:43.877Z,7.47
2023-04-19T03:02:43.872Z,7.42
2023-04-19T03:03:43.737Z,7.39
2023-04-19T03:04:43.739Z,7.33
2023-04-19T03:05:43.676Z,7.38
2023-04-19T03:06:43.792Z,7.36
2023-04-19T03:07:44.529Z,7.36
2023-04-19T03:08:43.706Z,7.38
2023-04-19T03:09:43.629Z,7.36
2023-04-19T03:10:43.618Z,7.25
2023-04-19T03:11:43.694Z,7.32
2023-04-19T03:12:43.602Z,7.20
2023-04-19T03:13:43.604Z,7.32
2023-04-19T03:14:43.581Z,7.23
2023-04-19T03:15:43.610Z,7.17
2023-04-19T03:16:43.635Z,7.17
2023-04-19T03:17:43.702Z,7.18
2023-04-19T03:18:43.527Z,7.25
2023-04-19T03:19:43.531Z,7.15
2023-04-19T03:20:43.545Z,7.14
2023-04-19T03:21:43.492Z,7.20
2023-04-19T03:22:43.571Z,7.13
2023-04-19T03:23:43.492Z,7.05
2023-04-19T03:24:43.478Z,7.11
2023-04-19T03:25:43.484Z,7.13
2023-04-19T03:26:43.449Z,7.13
2023-04-19T03:27:43.507Z,7.06
2023-04-19T03:28:43.419Z,7.03
2023-04-19T03:29:43.469Z,6.96
2023-04-19T03:30:43.405Z,7.00
2023-04-19T03:31:43.444Z,6.99
2023-04-19T03:32:43.491Z,7.03
2023-04-19T03:33:43.363Z,6.92
2023-04-19T03:34:43.355Z,6.93
2023-04-19T03:35:43.351Z,7.02
2023-04-19T03:36:43.345Z,6.82
2023-04-19T03:37:43.409Z,6.82
2023-04-19T03:38:43.333Z,6.82
2023-04-19T03:39:43.300Z,6.81
2023-04-19T03:40:43.301Z,6.70
2023-04-19T03:41:43.293Z,6.69
2023-04-19T03:42:43.338Z,6.69
2023-04-19T03:43:43.383Z,6.70
2023-04-19T03:44:43.278Z,6.67
2023-04-19T03:45:43.243Z,6.60
2023-04-19T03:46:43.400Z,6.52
2023-04-19T03:47:43.367Z,6.66
2023-04-19T03:48:43.281Z,6.64
2023-04-19T03:49:43.208Z,6.62
2023-04-19T03:50:43.202Z,6.62
2023-04-19T03:51:43.184Z,6.60
2023-04-19T03:52:43.163Z,6.51
2023-04-19T03:53:43.212Z,6.52
2023-04-19T03:54:43.174Z,6.52
2023-04-19T03:55:43.151Z,6.52
2023-04-19T03:56:43.135Z,6.45
2023-04-19T03:57:43.126Z,6.46
2023-04-19T03:58:43.162Z,6.46
2023-04-19T03:59:43.089Z,6.44
2023-04-19T04:00:43.074Z,6.49
2023-04-19T04:01:43.204Z,6.49
2023-04-19T04:02:43.256Z,6.49
2023-04-19T04:03:43.400Z,6.44
2023-04-19T04:04:43.364Z,6.48
2023-04-19T04:05:43.119Z,6.39
2023-04-19T04:06:43.052Z,6.35
2023-04-19T04:07:42.994Z,6.41
2023-04-19T04:08:43.086Z,6.44
2023-04-19T04:09:43.070Z,6.35
2023-04-19T04:10:42.993Z,6.28
2023-04-19T04:11:42.967Z,6.27
2023-04-19T04:12:42.992Z,6.22
2023-04-19T04:13:43.007Z,6.30
2023-04-19T04:14:42.944Z,6.26
2023-04-19T04:15:42.950Z,6.22
2023-04-19T04:16:42.954Z,6.14
2023-04-19T04:17:42.952Z,6.19
2023-04-19T04:18:42.939Z,6.12
2023-04-19T04:19:42.938Z,6.09
2023-04-19T04:20:42.945Z,5.97
2023-04-19T04:21:42.869Z,5.99
2023-04-19T04:22:42.869Z,6.02
2023-04-19T04:23:42.827Z,6.01
2023-04-19T04:24:42.819Z,5.91
2023-04-19T04:25:42.869Z,5.99
2023-04-19T04:26:42.818Z,5.93
2023-04-19T04:27:42.813Z,5.93
2023-04-19T04:28:42.803Z,5.90
2023-04-19T04:29:42.810Z,5.87
2023-04-19T04:30:42.841Z,5.79
2023-04-19T04:31:42.797Z,5.87
2023-04-19T04:32:42.801Z,5.86
2023-04-19T04:33:42.765Z,5.86
2023-04-19T04:34:42.773Z,5.84
2023-04-19T04:35:42.793Z,5.82
2023-04-19T04:36:42.718Z,5.83
2023-04-19T04:37:42.704Z,5.82
2023-04-19T04:38:42.689Z,5.82
2023-04-19T04:39:42.740Z,5.76
2023-04-19T04:40:42.745Z,5.83
2023-04-19T04:41:42.675Z,5.72
2023-04-19T04:42:42.735Z,5.72
2023-04-19T04:43:42.656Z,5.73
2023-04-19T04:44:42.645Z,5.75
2023-04-19T04:45:42.655Z,5.71
2023-04-19T04:46:42.686Z,5.65
2023-04-19T04:47:42.634Z,5.65
2023-04-19T04:48:42.611Z,5.68
2023-04-19T04:49:42.579Z,5.64
2023-04-19T04:50:42.585Z,5.64
2023-04-19T04:51:42.641Z,5.50
2023-04-19T04:52:42.648Z,5.54
2023-04-19T04:53:42.543Z,5.53
2023-04-19T04:54:42.539Z,5.57
2023-04-19T04:55:42.559Z,5.54
2023-04-19T04:56:42.580Z,5.59
2023-04-19T04:57:42.562Z,5.54
2023-04-19T04:58:42.533Z,5.57
2023-04-19T04:59:42.490Z,5.50
2023-04-19T05:00:42.487Z,5.59
2023-04-19T05:01:42.627Z,5.56
2023-04-19T05:02:42.529Z,5.44
2023-04-19T05:03:42.529Z,5.46
2023-04-19T05:04:42.646Z,5.44
2023-04-19T05:05:44.389Z,5.44
2023-04-19T05:06:42.420Z,5.41
2023-04-19T05:07:42.414Z,5.39
2023-04-19T05:08:42.472Z,5.46
2023-04-19T05:09:42.368Z,5.48
2023-04-19T05:10:42.391Z,5.44
2023-04-19T05:11:42.366Z,5.43
2023-04-19T05:12:42.354Z,5.39
2023-04-19T05:13:42.411Z,5.39
2023-04-19T05:14:42.402Z,5.38
2023-04-19T05:15:42.351Z,5.47
2023-04-19T05:16:42.358Z,5.46
2023-04-19T05:17:42.465Z,5.50
2023-04-19T05:18:42.351Z,5.47
2023-04-19T05:19:42.279Z,5.51
2023-04-19T05:20:42.265Z,5.54
2023-04-19T05:21:42.257Z,5.57
2023-04-19T05:22:42.310Z,5.59
2023-04-19T05:23:42.229Z,5.59
2023-04-19T05:24:42.531Z,5.62
2023-04-19T05:25:42.294Z,5.57
2023-04-19T05:26:42.212Z,5.72
2023-04-19T05:27:42.261Z,5.66
2023-04-19T05:28:42.195Z,5.71
2023-04-19T05:29:42.193Z,5.76
2023-04-19T05:30:42.248Z,5.84
2023-04-19T05:31:42.211Z,5.90
2023-04-19T05:32:42.176Z,5.90
2023-04-19T05:33:42.130Z,5.86
2023-04-19T05:34:42.181Z,5.90
2023-04-19T05:35:42.122Z,6.02
2023-04-19T05:36:42.117Z,6.07
2023-04-19T05:37:42.271Z,6.09
2023-04-19T05:38:42.099Z,6.09
2023-04-19T05:39:44.168Z,6.08
2023-04-19T05:40:42.050Z,6.16
2023-04-19T05:41:42.098Z,6.22
2023-04-19T05:42:42.087Z,6.19
2023-04-19T05:43:42.028Z,6.27
2023-04-19T05:44:42.072Z,6.36
2023-04-19T05:45:42.009Z,6.31
2023-04-19T05:46:42.017Z,6.28
2023-04-19T05:47:42.090Z,6.36
2023-04-19T05:48:42.022Z,6.39
2023-04-19T05:49:43.225Z,6.44
2023-04-19T05:50:41.964Z,6.57
2023-04-19T05:51:41.963Z,6.52
2023-04-19T05:52:41.948Z,6.51
2023-04-19T05:53:41.927Z,6.46
2023-04-19T05:54:42.020Z,6.51
2023-04-19T05:55:41.910Z,6.62
2023-04-19T05:56:41.912Z,6.66
2023-04-19T05:57:41.886Z,6.63
2023-04-19T05:58:41.881Z,6.78
2023-04-19T05:59:41.979Z,6.74
2023-04-19T06:00:41.970Z,6.79
2023-04-19T06:01:41.913Z,6.78
2023-04-19T06:02:41.997Z,6.77
2023-04-19T06:03:42.106Z,6.78
2023-04-19T06:04:42.124Z,6.72
2023-04-19T06:05:41.906Z,6.72
2023-04-19T06:06:41.868Z,6.67
2023-04-19T06:07:47.365Z,6.62
2023-04-19T06:08:42.760Z,6.56
2023-04-19T06:09:41.777Z,6.60
2023-04-19T06:11:49.987Z,6.69
2023-04-19T06:12:42.766Z,6.62
2023-04-19T06:13:41.735Z,6.74
2023-04-19T06:14:41.703Z,6.79
2023-04-19T06:15:41.778Z,6.78
2023-04-19T06:16:41.797Z,6.75
2023-04-19T06:17:41.775Z,6.87
2023-04-19T06:18:41.684Z,6.84
2023-04-19T06:19:41.677Z,7.03
2023-04-19T06:20:41.653Z,6.99
2023-04-19T06:21:41.646Z,6.97
2023-04-19T06:22:41.668Z,6.93
2023-04-19T06:23:41.614Z,7.03
2023-04-19T06:24:41.613Z,7.03
2023-04-19T06:25:41.621Z,7.07
2023-04-19T06:26:41.805Z,7.13
2023-04-19T06:27:41.652Z,7.13
2023-04-19T06:28:41.561Z,7.10
2023-04-19T06:29:41.550Z,7.06
2023-04-19T06:30:41.552Z,7.11
2023-04-19T06:31:41.652Z,7.07
2023-04-19T06:32:41.546Z,7.06
2023-04-19T06:33:41.500Z,7.13
2023-04-19T06:34:41.535Z,7.14
2023-04-19T06:35:41.481Z,7.17
2023-04-19T06:36:41.550Z,7.18
2023-04-19T06:37:41.488Z,7.32
2023-04-19T06:38:41.472Z,7.32
2023-04-19T06:39:41.448Z,7.33
2023-04-19T06:40:41.451Z,7.31
2023-04-19T06:41:41.522Z,7.42
2023-04-19T06:42:41.474Z,7.43
2023-04-19T06:43:41.440Z,7.57
2023-04-19T06:44:41.444Z,7.66
2023-04-19T06:45:41.605Z,7.72
2023-04-19T06:46:41.441Z,7.73
2023-04-19T06:47:41.422Z,7.67
2023-04-19T06:48:41.342Z,7.73
2023-04-19T06:49:41.344Z,7.76
2023-04-19T06:50:41.410Z,7.87
2023-04-19T06:51:41.329Z,7.77
2023-04-19T06:52:41.299Z,7.91
2023-04-19T06:53:41.367Z,8.00
2023-04-19T06:54:41.290Z,7.91
2023-04-19T06:55:41.288Z,7.91
2023-04-19T06:56:41.363Z,7.97
2023-04-19T06:57:41.259Z,7.93
2023-04-19T06:58:41.259Z,7.94
2023-04-19T06:59:41.219Z,7.82
2023-04-19T07:00:41.298Z,7.91
2023-04-19T07:01:41.354Z,7.93
2023-04-19T07:02:41.279Z,7.93
2023-04-19T07:03:41.489Z,7.97
2023-04-19T07:04:41.389Z,8.00
2023-04-19T07:05:41.235Z,8.05
2023-04-19T07:06:41.170Z,8.01
2023-04-19T07:07:41.153Z,7.97
2023-04-19T07:08:49.786Z,8.05
2023-04-19T07:09:42.124Z,8.13
2023-04-19T07:10:41.358Z,8.12
2023-04-19T07:11:41.103Z,8.16
2023-04-19T07:12:41.086Z,8.16
2023-04-19T07:13:41.077Z,8.28
2023-04-19T07:14:41.084Z,8.33
2023-04-19T07:15:41.683Z,8.30
2023-04-19T07:16:41.050Z,8.36
2023-04-19T07:17:41.078Z,8.42
2023-04-19T07:18:41.034Z,8.45
2023-04-19T07:19:41.013Z,8.42
2023-04-19T07:20:41.084Z,8.36
2023-04-19T07:21:41.022Z,8.34
2023-04-19T07:22:41.120Z,8.34
2023-04-19T07:23:41.044Z,8.38
2023-04-19T07:24:40.956Z,8.33
2023-04-19T07:25:41.020Z,8.31
2023-04-19T07:26:40.960Z,8.30
2023-04-19T07:27:40.962Z,8.42
2023-04-19T07:28:40.924Z,8.46
2023-04-19T07:29:40.985Z,8.49
2023-04-19T07:30:40.912Z,8.51
2023-04-19T07:31:40.916Z,8.49
2023-04-19T07:32:41.016Z,8.45
2023-04-19T07:33:40.918Z,8.45
2023-04-19T07:34:40.929Z,8.44
2023-04-19T07:35:41.012Z,8.44
2023-04-19T07:36:40.862Z,8.51
2023-04-19T07:37:40.893Z,8.58
2023-04-19T07:38:40.868Z,8.61
2023-04-19T07:39:40.915Z,8.69
2023-04-19T07:40:40.796Z,8.67
2023-04-19T07:41:40.808Z,8.69
2023-04-19T07:42:40.818Z,8.63
2023-04-19T07:43:41.157Z,8.64
2023-04-19T07:44:40.749Z,8.67
2023-04-19T07:45:40.762Z,8.69
2023-04-19T07:46:40.824Z,8.66
2023-04-19T07:47:40.841Z,8.64
2023-04-19T07:48:40.718Z,8.66
2023-04-19T07:49:40.720Z,8.67
2023-04-19T07:50:40.704Z,8.73
2023-04-19T07:51:40.674Z,8.74
2023-04-19T07:52:40.730Z,8.74
2023-04-19T07:53:40.654Z,8.78
2023-04-19T07:54:40.707Z,8.79
2023-04-19T07:55:40.679Z,8.78
2023-04-19T07:56:40.633Z,8.79
2023-04-19T07:57:40.747Z,8.94
2023-04-19T07:58:40.783Z,8.89
2023-04-19T07:59:40.668Z,8.95
2023-04-19T08:00:40.580Z,8.95
2023-04-19T08:01:40.743Z,8.94
2023-04-19T08:02:40.658Z,8.97
2023-04-19T08:03:40.811Z,9.11
2023-04-19T08:04:40.939Z,9.11
2023-04-19T08:05:40.589Z,9.16
2023-04-19T08:06:40.525Z,9.18
2023-04-19T08:07:40.518Z,9.19
2023-04-19T08:08:40.512Z,9.16
2023-04-19T08:09:40.592Z,9.18
2023-04-19T08:10:40.505Z,9.25
2023-04-19T08:11:40.483Z,9.31
2023-04-19T08:12:47.354Z,9.41
2023-04-19T08:13:42.175Z,9.41
2023-04-19T08:14:51.638Z,9.36
2023-04-19T08:17:42.438Z,9.40
2023-04-19T08:18:40.429Z,9.39
2023-04-19T08:19:40.481Z,9.32
2023-04-19T08:20:40.386Z,9.39
2023-04-19T08:21:41.543Z,9.34
2023-04-19T08:22:40.369Z,9.48
2023-04-19T08:23:47.995Z,9.58
2023-04-19T08:24:41.435Z,9.58
2023-04-19T08:25:40.330Z,9.59
2023-04-19T08:26:40.354Z,9.64
2023-04-19T08:27:40.317Z,9.62
2023-04-19T08:28:40.289Z,9.68
2023-04-19T08:29:40.365Z,9.58
2023-04-19T08:30:40.282Z,9.68
2023-04-19T08:31:40.331Z,9.76
2023-04-19T08:32:40.334Z,9.82
2023-04-19T08:33:40.265Z,9.94
2023-04-19T08:34:40.311Z,9.94
2023-04-19T08:35:40.225Z,9.89
2023-04-19T08:36:48.346Z,9.94
2023-04-19T08:37:41.448Z,9.98
2023-04-19T08:38:40.192Z,10.05
2023-04-19T08:39:40.427Z,10.13
2023-04-19T08:40:40.205Z,10.16
2023-04-19T08:41:40.168Z,10.16
2023-04-19T08:42:40.156Z,10.16
2023-04-19T08:43:41.661Z,10.10
2023-04-19T08:44:53.813Z,10.15
2023-04-19T08:45:41.167Z,10.02
2023-04-19T08:46:40.417Z,10.09
2023-04-19T08:48:40.180Z,10.16
2023-04-19T08:49:43.214Z,10.10
2023-04-19T08:50:51.961Z,10.10
2023-04-19T08:51:41.065Z,10.02
2023-04-19T08:52:51.876Z,10.12
2023-04-19T08:53:41.125Z,10.26
2023-04-19T08:54:40.030Z,10.22
2023-04-19T08:55:45.356Z,10.19
2023-04-19T08:56:41.007Z,10.16
2023-04-19T08:57:39.995Z,10.15
2023-04-19T08:58:57.694Z,10.23
2023-04-19T08:59:41.849Z,10.19
2023-04-19T09:00:39.964Z,10.23
2023-04-19T09:01:40.536Z,10.34
2023-04-19T09:02:40.036Z,10.40
2023-04-19T09:03:51.593Z,10.46
2023-04-19T09:04:41.319Z,10.48
2023-04-19T09:05:40.156Z,10.56
2023-04-19T09:06:40.186Z,10.53
2023-04-19T09:07:40.059Z,10.57
2023-04-19T09:08:39.954Z,10.59
2023-04-19T09:09:55.671Z,10.74
2023-04-19T09:10:40.853Z,10.67
2023-04-19T09:11:39.840Z,10.63
2023-04-19T09:12:39.824Z,10.64
2023-04-19T09:13:39.883Z,10.67
2023-04-19T09:14:41.436Z,10.71
2023-04-19T09:15:39.852Z,10.63
2023-04-19T09:16:39.777Z,10.67
2023-04-19T09:17:39.886Z,10.64
2023-04-19T09:18:45.639Z,10.76
2023-04-19T09:19:40.797Z,10.79
2023-04-19T09:20:39.734Z,10.75
2023-04-19T09:21:39.749Z,10.78
2023-04-19T09:22:39.723Z,10.79
2023-04-19T09:23:39.774Z,10.72
2023-04-19T09:25:52.838Z,10.74
2023-04-19T09:26:40.959Z,10.81
2023-04-19T09:27:39.727Z,10.81
2023-04-19T09:28:39.681Z,10.78
2023-04-19T09:29:39.699Z,10.89
2023-04-19T09:31:51.059Z,11.04
2023-04-19T09:32:40.783Z,11.07
2023-04-19T09:33:39.704Z,11.12
2023-04-19T09:34:39.625Z,11.14
2023-04-19T09:35:39.591Z,11.12
2023-04-19T09:36:39.565Z,11.12
2023-04-19T09:38:40.550Z,11.17
2023-04-19T09:39:39.543Z,11.11
2023-04-19T09:40:39.602Z,11.26
2023-04-19T09:41:41.447Z,11.32
2023-04-19T09:42:58.791Z,11.29
2023-04-19T09:45:02.128Z,11.25
2023-04-19T09:45:40.543Z,11.26
2023-04-19T09:46:39.692Z,11.22
2023-04-19T09:47:39.506Z,11.19
2023-04-19T09:48:39.511Z,11.22
2023-04-19T09:49:48.543Z,11.22
2023-04-19T09:50:53.673Z,11.36
2023-04-19T09:51:40.410Z,11.43
2023-04-19T09:52:39.386Z,11.40
2023-04-19T09:53:39.456Z,11.35
2023-04-19T09:54:39.399Z,11.32
2023-04-19T09:55:48.867Z,11.30
2023-04-19T09:56:40.367Z,11.40
2023-04-19T09:57:39.350Z,11.40
2023-04-19T09:58:51.177Z,11.40
2023-04-19T09:59:40.346Z,11.54
2023-04-19T10:00:47.803Z,11.52
2023-04-19T10:01:40.412Z,11.48
2023-04-19T10:02:39.481Z,11.59
2023-04-19T10:03:39.818Z,11.77
2023-04-19T10:05:39.386Z,11.84
2023-04-19T10:06:58.473Z,11.91
2023-04-19T10:07:40.415Z,11.86
2023-04-19T10:08:39.717Z,11.94
2023-04-19T10:09:46.169Z,11.97
2023-04-19T10:10:42.446Z,12.06
2023-04-19T10:11:39.271Z,12.10
2023-04-19T10:13:03.966Z,12.17
2023-04-19T10:13:40.284Z,12.20
2023-04-19T10:14:39.174Z,12.12
2023-04-19T10:15:50.205Z,12.22
2023-04-19T10:16:40.146Z,12.20
2023-04-19T10:17:39.170Z,12.18
2023-04-19T10:18:39.281Z,12.18
2023-04-19T10:19:39.174Z,12.21
2023-04-19T10:20:39.109Z,12.10
2023-04-19T10:21:39.168Z,12.18
2023-04-19T10:22:39.102Z,12.18
2023-04-19T10:23:39.091Z,12.10
2023-04-19T10:24:39.153Z,12.12
2023-04-19T10:25:39.089Z,12.18
2023-04-19T10:26:39.109Z,12.27
2023-04-19T10:27:39.236Z,12.29
2023-04-19T10:28:39.033Z,12.35
2023-04-19T10:29:39.084Z,12.37
2023-04-19T10:30:39.149Z,12.35
2023-04-19T10:31:39.162Z,12.37
2023-04-19T10:32:39.110Z,12.42
2023-04-19T10:33:38.969Z,12.45
2023-04-19T10:34:39.060Z,12.47
2023-04-19T10:35:38.998Z,12.43
2023-04-19T10:36:38.989Z,12.49
2023-04-19T10:37:39.142Z,12.49
2023-04-19T10:38:38.983Z,12.49
2023-04-19T10:39:38.907Z,12.46
2023-04-19T10:40:38.905Z,12.67
2023-04-19T10:41:38.965Z,12.73
2023-04-19T10:42:38.869Z,12.90
2023-04-19T10:43:38.876Z,12.86
2023-04-19T10:44:38.867Z,12.91
2023-04-19T10:45:38.879Z,12.86
2023-04-19T10:46:38.968Z,12.80
2023-04-19T10:47:38.828Z,12.76
2023-04-19T10:48:38.836Z,12.85
2023-04-19T10:49:38.811Z,12.93
2023-04-19T10:50:38.875Z,12.93
2023-04-19T10:51:39.098Z,12.76
2023-04-19T10:52:38.777Z,12.85
2023-04-19T10:53:38.790Z,12.73
2023-04-19T10:54:38.753Z,12.70
2023-04-19T10:55:38.751Z,12.75
2023-04-19T10:56:38.797Z,12.90
2023-04-19T10:57:38.720Z,12.79
2023-04-19T10:58:38.977Z,12.83
2023-04-19T10:59:38.701Z,12.80
2023-04-19T11:00:38.696Z,12.79
2023-04-19T11:01:38.764Z,12.91
2023-04-19T11:02:38.779Z,13.03
2023-04-19T11:03:38.797Z,13.04
2023-04-19T11:04:38.767Z,13.00
2023-04-19T11:05:38.631Z,12.93
2023-04-19T11:06:38.776Z,12.87
2023-04-19T11:07:38.614Z,12.83
2023-04-19T11:08:38.589Z,12.93
2023-04-19T11:09:38.603Z,12.80
2023-04-19T11:10:38.579Z,12.78
2023-04-19T11:11:38.605Z,12.85
2023-04-19T11:12:38.625Z,12.86
2023-04-19T11:13:38.574Z,12.82
2023-04-19T11:14:38.554Z,12.87
2023-04-19T11:15:38.561Z,13.05
2023-04-19T11:16:46.226Z,13.03
2023-04-19T11:17:39.711Z,13.18
2023-04-19T11:18:38.705Z,13.13
2023-04-19T11:19:38.492Z,13.05
2023-04-19T11:20:38.485Z,13.03
2023-04-19T11:21:38.493Z,12.93
2023-04-19T11:22:38.700Z,12.98
2023-04-19T11:23:38.459Z,12.97
2023-04-19T11:24:38.437Z,13.09
2023-04-19T11:25:38.428Z,13.15
2023-04-19T11:26:39.593Z,13.13
2023-04-19T11:27:38.528Z,13.11
2023-04-19T11:28:38.395Z,13.15
2023-04-19T11:29:38.395Z,13.12
2023-04-19T11:30:38.365Z,13.11
2023-04-19T11:31:38.444Z,13.20
2023-04-19T11:32:38.462Z,13.23
2023-04-19T11:33:38.329Z,13.13
2023-04-19T11:34:38.321Z,13.18
2023-04-19T11:35:38.311Z,13.16
2023-04-19T11:36:38.303Z,13.20
2023-04-19T11:37:38.364Z,13.15
2023-04-19T11:38:38.378Z,13.19
2023-04-19T11:39:38.266Z,13.09
2023-04-19T11:40:38.324Z,13.15
2023-04-19T11:41:38.252Z,13.19
2023-04-19T11:42:38.310Z,13.23
2023-04-19T11:43:38.313Z,13.23
2023-04-19T11:44:38.223Z,13.16
2023-04-19T11:45:39.643Z,13.22
2023-04-19T11:46:38.242Z,13.20
2023-04-19T11:47:38.258Z,13.33
2023-04-19T11:48:38.188Z,13.37
2023-04-19T11:49:38.186Z,13.37
2023-04-19T11:50:38.334Z,13.39
2023-04-19T11:51:38.134Z,13.39
2023-04-19T11:52:38.275Z,13.31
2023-04-19T11:53:38.124Z,13.39
2023-04-19T11:54:38.132Z,13.47
2023-04-19T11:55:38.127Z,13.41
2023-04-19T11:56:38.086Z,13.44
2023-04-19T11:57:39.817Z,13.53
2023-04-19T11:58:38.081Z,13.46
2023-04-19T11:59:38.057Z,13.62
2023-04-19T12:00:38.203Z,13.67
2023-04-19T12:01:38.091Z,13.57
2023-04-19T12:02:38.725Z,13.44
2023-04-19T12:03:38.285Z,13.38
2023-04-19T12:04:38.276Z,13.38
2023-04-19T12:05:38.160Z,13.37
2023-04-19T12:06:37.976Z,13.42
2023-04-19T12:07:37.982Z,13.49
2023-04-19T12:08:38.019Z,13.50
2023-04-19T12:09:37.970Z,13.59
2023-04-19T12:10:37.954Z,13.68
2023-04-19T12:11:37.925Z,13.60
2023-04-19T12:12:37.939Z,13.68
2023-04-19T12:13:37.988Z,13.68
2023-04-19T12:14:38.272Z,13.75
2023-04-19T12:15:37.871Z,13.81
2023-04-19T12:16:37.952Z,13.85
2023-04-19T12:17:42.162Z,13.81
2023-04-19T12:18:38.949Z,13.81
2023-04-19T12:19:37.829Z,13.65
2023-04-19T12:20:37.875Z,13.62
2023-04-19T12:21:37.829Z,13.59
2023-04-19T12:22:37.805Z,13.70
2023-04-19T12:23:37.805Z,13.65
2023-04-19T12:24:38.372Z,13.68
2023-04-19T12:25:37.813Z,13.71
2023-04-19T12:26:37.821Z,13.59
2023-04-19T12:27:38.221Z,13.50
2023-04-19T12:28:37.764Z,13.59
2023-04-19T12:29:37.826Z,13.60
2023-04-19T12:30:37.787Z,13.62
2023-04-19T12:31:37.781Z,13.68
2023-04-19T12:32:37.880Z,13.65
2023-04-19T12:33:37.841Z,13.67
2023-04-19T12:34:37.729Z,13.78
2023-04-19T12:35:37.711Z,13.77
2023-04-19T12:36:38.047Z,13.83
2023-04-19T12:37:37.682Z,13.85
2023-04-19T12:38:37.821Z,13.71
2023-04-19T12:39:37.885Z,13.83
2023-04-19T12:40:37.719Z,13.86
2023-04-19T12:41:37.630Z,13.77
2023-04-19T12:42:37.623Z,13.85
2023-04-19T12:43:37.576Z,13.93
2023-04-19T12:44:37.625Z,13.85
2023-04-19T12:45:37.644Z,13.90
2023-04-19T12:46:37.699Z,14.03
2023-04-19T12:47:37.561Z,14.14
2023-04-19T12:48:37.534Z,14.17
2023-04-19T12:49:37.539Z,14.20
2023-04-19T12:50:37.570Z,14.14
2023-04-19T12:51:37.519Z,14.12
2023-04-19T12:52:37.498Z,14.12
2023-04-19T12:53:37.484Z,14.14
2023-04-19T12:54:37.531Z,13.97
2023-04-19T12:55:37.506Z,13.97
2023-04-19T12:56:37.430Z,13.79
2023-04-19T12:57:37.485Z,13.67
2023-04-19T12:58:39.250Z,13.62
2023-04-19T12:59:37.961Z,13.65
2023-04-19T13:00:37.468Z,13.62
2023-04-19T13:01:37.407Z,13.72
2023-04-19T13:02:37.555Z,13.72
2023-04-19T13:03:37.515Z,13.70
2023-04-19T13:04:37.468Z,13.74
2023-04-19T13:05:37.470Z,13.79
2023-04-19T13:06:37.359Z,13.81
2023-04-19T13:07:37.346Z,13.86
2023-04-19T13:08:44.120Z,14.04
2023-04-19T13:09:38.388Z,14.03
2023-04-19T13:10:37.317Z,14.08
2023-04-19T13:11:37.289Z,14.08
2023-04-19T13:12:37.382Z,14.15
2023-04-19T13:13:37.293Z,14.18
2023-04-19T13:14:37.306Z,14.10
2023-04-19T13:15:37.262Z,14.08
2023-04-19T13:16:37.261Z,14.14
2023-04-19T13:17:37.291Z,14.07
2023-04-19T13:18:37.302Z,14.08